Time;durP1;ratioP1;P1;durP2;ratioP2;P2;SDS_P1;SDS_P2;PMS_P1;PMS_P2;Temp;Humidity;BMP_temperature;BMP_pressure;BME280_temperature;BME280_humidity;BME280_pressure;Samples;Min_cycle;Max_cycle;Signal;HPM_P1;HPM_P2
2022/01/14 00:02:24;;;;;;;;;;;;;;;-4.43;95.72;97854.69;5033639;28;19943;-74
2022/01/14 00:04:51;;;;;;;;;;;;;;;-4.42;95.22;97844.50;5033495;28;19940;-71
2022/01/14 00:07:18;;;;;;;;;;;;;;;-4.68;95.58;97848.03;5033450;28;19962;-75
2022/01/14 00:09:47;;;;;;;;;;;;;;;-4.54;96.47;97846.69;5033687;28;19971;-76
2022/01/14 00:12:18;;;;;;;;;;;;;;;-4.50;95.63;97849.03;5033650;28;20019;-69
2022/01/14 00:14:58;;;;;;;;;;;;;;;-4.51;95.70;97847.38;5033393;28;19917;-69
2022/01/14 00:17:25;;;;;;;;;;;;;;;-4.49;95.00;97848.16;5033058;28;19986;-71
2022/01/14 00:19:52;;;;;;;;;;;;;;;-4.45;94.98;97853.91;5033516;28;19940;-71
2022/01/14 00:22:19;;;;;;;;;;;;;;;-4.51;95.20;97849.91;5033344;28;19939;-71
2022/01/14 00:33:16;;;;;;;;;;;;;;;-4.69;95.41;97848.94;4994075;28;20001;-76
2022/01/14 00:35:43;;;;;;;;;;;;;;;-4.87;96.75;97857.28;4986415;28;19940;-73
2022/01/14 00:38:11;;;;;;;;;;;;;;;-4.77;96.36;97843.34;4974302;28;19918;-76
2022/01/14 00:40:38;;;;;;;;;;;;;;;-4.79;95.83;97856.97;4974525;28;19973;-73
2022/01/14 00:43:05;;;;;;;;;;;;;;;-4.82;96.55;97847.78;4974571;28;20036;-77
2022/01/14 00:45:34;;;;;;;;;;;;;;;-4.70;95.59;97844.78;4974075;28;19981;-72
2022/01/14 00:48:02;;;;;;;;;;;;;;;-4.85;95.96;97845.38;4974283;28;20412;-76
2022/01/14 00:50:29;;;;;;;;;;;;;;;-4.81;95.71;97831.66;4974225;28;19918;-72
2022/01/14 00:52:56;;;;;;;;;;;;;;;-4.66;95.95;97838.66;4974051;28;19922;-72
2022/01/14 00:55:29;;;;;;;;;;;;;;;-4.76;95.10;97831.50;4974284;28;19940;-72
2022/01/14 01:00:42;;;;;;;;;;;;;;;-4.69;96.15;97827.84;4974289;28;19925;-72
2022/01/14 01:03:09;;;;;;;;;;;;;;;-4.47;94.99;97828.63;4973898;28;20012;-72
2022/01/14 01:05:36;;;;;;;;;;;;;;;-4.45;94.48;97831.06;4974234;28;19945;-73
2022/01/14 01:08:08;;;;;;;;;;;;;;;-4.41;94.14;97838.50;4973383;28;19969;-73
2022/01/14 01:10:35;;;;;;;;;;;;;;;-4.42;94.19;97825.88;4974279;28;19918;-72
2022/01/14 01:13:09;;;;;;;;;;;;;;;-4.40;94.16;97829.19;4973911;28;20045;-72
2022/01/14 01:15:36;;;;;;;;;;;;;;;-4.29;93.21;97823.66;4973717;28;20024;-77
2022/01/14 01:18:05;;;;;;;;;;;;;;;-4.41;92.84;97819.94;4974022;28;19918;-73
2022/01/14 01:20:32;;;;;;;;;;;;;;;-4.41;93.55;97812.31;4973916;28;19917;-74
2022/01/14 01:22:59;;;;;;;;;;;;;;;-4.28;92.94;97823.59;4973659;28;19941;-76
2022/01/14 01:25:30;;;;;;;;;;;;;;;-4.10;92.82;97811.03;4999911;22;19932;-71
2022/01/14 01:27:57;;;;;;;;;;;;;;;-4.21;92.69;97812.31;5032479;28;19917;-67
2022/01/14 01:33:21;;;;;;;;;;;;;;;-4.25;92.09;97798.06;4971617;28;19922;-70
2022/01/14 01:35:48;;;;;;;;;;;;;;;-4.36;93.24;97796.91;5017919;28;19939;-65
2022/01/14 01:38:17;;;;;;;;;;;;;;;-4.34;93.05;97798.47;5032233;28;20003;-70
2022/01/14 01:40:45;;;;;;;;;;;;;;;-4.24;92.28;97793.81;5032282;28;19917;-71
2022/01/14 01:43:13;;;;;;;;;;;;;;;-4.33;93.20;97784.88;5032535;28;19921;-71
2022/01/14 01:45:41;;;;;;;;;;;;;;;-4.51;93.80;97789.00;5032138;28;19917;-71
2022/01/14 01:48:08;;;;;;;;;;;;;;;-4.46;93.33;97791.38;5032356;28;20245;-71
2022/01/14 01:50:38;;;;;;;;;;;;;;;-4.40;92.76;97788.56;5032353;28;19917;-66
2022/01/14 01:53:05;;;;;;;;;;;;;;;-4.38;93.00;97791.88;5032123;28;19917;-71
2022/01/14 01:55:32;;;;;;;;;;;;;;;-4.27;92.46;97779.53;5031873;28;19940;-70
2022/01/14 01:57:59;;;;;;;;;;;;;;;-4.31;92.64;97783.13;5031926;28;20027;-68
2022/01/14 02:00:27;;;;;;;;;;;;;;;-4.33;92.28;97784.88;5032157;28;19940;-70
2022/01/14 02:02:56;;;;;;;;;;;;;;;-4.40;93.08;97791.09;5032033;28;19967;-67
2022/01/14 02:05:23;;;;;;;;;;;;;;;-4.31;92.64;97793.28;5032119;28;19980;-66
2022/01/14 02:07:52;;;;;;;;;;;;;;;-4.24;92.12;97801.44;5032084;28;19917;-65
2022/01/14 02:10:19;;;;;;;;;;;;;;;-4.16;91.35;97804.50;5032292;28;19948;-68
2022/01/14 02:12:52;;;;;;;;;;;;;;;-4.19;91.24;97800.38;5032257;28;19939;-68
2022/01/14 02:18:29;;;;;;;;;;;;;;;-4.48;92.01;97799.03;5016440;28;19998;-70
2022/01/14 02:23:46;;;;;;;;;;;;;;;-4.45;92.50;97805.69;5035501;28;19924;-71
2022/01/14 02:26:14;;;;;;;;;;;;;;;-4.58;92.88;97805.38;5049447;22;19921;-74
2022/01/14 02:28:42;;;;;;;;;;;;;;;-4.67;93.58;97800.69;5035769;28;19917;-76
2022/01/14 02:31:09;;;;;;;;;;;;;;;-4.83;94.98;97788.63;5035828;28;19917;-75
2022/01/14 02:33:36;;;;;;;;;;;;;;;-4.93;95.54;97778.88;5035796;28;19940;-75
2022/01/14 02:36:05;;;;;;;;;;;;;;;-4.87;95.20;97788.81;5035639;28;19939;-76
2022/01/14 02:38:33;;;;;;;;;;;;;;;-5.00;95.64;97774.97;5035386;28;19944;-77
2022/01/14 02:41:00;;;;;;;;;;;;;;;-4.99;96.22;97776.59;5035501;28;19917;-77
2022/01/14 02:43:27;;;;;;;;;;;;;;;-4.91;95.72;97772.88;5035621;28;19917;-76
2022/01/14 02:45:56;;;;;;;;;;;;;;;-5.02;96.34;97769.94;5035560;28;20007;-74
2022/01/14 02:48:24;;;;;;;;;;;;;;;-4.96;96.71;97768.88;5035420;28;20294;-75
2022/01/14 02:50:57;;;;;;;;;;;;;;;-4.76;95.77;97760.47;5035671;28;19917;-77
2022/01/14 02:53:29;;;;;;;;;;;;;;;-4.73;96.07;97766.22;5035216;28;19952;-77
2022/01/14 02:55:58;;;;;;;;;;;;;;;-4.68;95.85;97759.25;5035624;28;19945;-77
2022/01/14 02:58:27;;;;;;;;;;;;;;;-4.66;95.53;97761.75;5035330;28;19917;-78
2022/01/14 03:00:54;;;;;;;;;;;;;;;-4.48;94.66;97758.44;5035588;28;19916;-75
2022/01/14 03:03:25;;;;;;;;;;;;;;;-4.43;94.18;97763.31;5035504;28;19940;-78
2022/01/14 03:05:53;;;;;;;;;;;;;;;-4.39;93.70;97767.38;5035337;28;19946;-75
2022/01/14 03:08:21;;;;;;;;;;;;;;;-4.45;94.32;97765.91;5035468;28;19917;-78
2022/01/14 03:10:50;;;;;;;;;;;;;;;-4.46;93.34;97763.47;5035287;28;19921;-76
2022/01/14 03:13:17;;;;;;;;;;;;;;;-4.44;93.75;97771.84;5035041;28;20296;-77
2022/01/14 03:15:45;;;;;;;;;;;;;;;-4.42;93.38;97762.41;5034804;28;19940;-77
2022/01/14 03:18:12;;;;;;;;;;;;;;;-4.47;93.65;97765.16;5034751;28;19917;-76
2022/01/14 03:20:50;;;;;;;;;;;;;;;-4.48;93.08;97768.59;5034631;28;19940;-78
2022/01/14 03:23:19;;;;;;;;;;;;;;;-4.39;92.65;97754.69;5034805;28;19983;-77
2022/01/14 03:25:49;;;;;;;;;;;;;;;-4.38;92.37;97761.41;5049071;22;19925;-70
2022/01/14 03:28:18;;;;;;;;;;;;;;;-4.40;92.10;97769.06;5034280;28;19925;-69
2022/01/14 03:30:45;;;;;;;;;;;;;;;-4.50;92.69;97772.06;5033381;28;20354;-71
2022/01/14 03:33:12;;;;;;;;;;;;;;;-4.39;91.72;97758.06;5034246;28;19940;-69
2022/01/14 03:35:39;;;;;;;;;;;;;;;-4.50;92.50;97761.91;5034348;28;20259;-70
2022/01/14 03:38:06;;;;;;;;;;;;;;;-4.39;91.75;97757.25;5034265;28;19917;-71
2022/01/14 03:40:33;;;;;;;;;;;;;;;-4.37;92.32;97773.19;5034127;28;19917;-70
2022/01/14 03:43:00;;;;;;;;;;;;;;;-4.41;92.01;97761.53;5034057;28;20074;-70
2022/01/14 03:45:29;;;;;;;;;;;;;;;-4.49;92.49;97759.34;5033958;28;19917;-68
2022/01/14 03:47:56;;;;;;;;;;;;;;;-4.47;91.65;97772.78;5034304;28;19948;-71
2022/01/14 03:50:25;;;;;;;;;;;;;;;-4.37;91.30;97768.13;5034135;28;19916;-68
2022/01/14 03:52:52;;;;;;;;;;;;;;;-4.48;92.34;97776.19;5033757;28;19917;-69
2022/01/14 03:55:19;;;;;;;;;;;;;;;-4.48;91.91;97783.81;5033968;28;19917;-70
2022/01/14 03:57:46;;;;;;;;;;;;;;;-4.48;92.06;97783.00;5033675;28;19917;-69
2022/01/14 04:00:13;;;;;;;;;;;;;;;-4.46;91.22;97789.66;5033497;28;19939;-68
2022/01/14 04:02:42;;;;;;;;;;;;;;;-4.54;92.00;97788.34;5033831;28;19917;-70
2022/01/14 04:05:09;;;;;;;;;;;;;;;-4.60;92.70;97791.91;5033778;28;20035;-70
2022/01/14 04:07:36;;;;;;;;;;;;;;;-4.55;91.83;97790.03;5033654;28;19977;-70
2022/01/14 04:10:04;;;;;;;;;;;;;;;-4.51;91.39;97793.28;5033709;28;19917;-71
2022/01/14 04:12:44;;;;;;;;;;;;;;;-4.57;91.40;97803.66;5033586;28;19939;-66
2022/01/14 04:17:57;;;;;;;;;;;;;;;-4.73;92.50;97783.97;5033674;28;19940;-66
2022/01/14 04:20:24;;;;;;;;;;;;;;;-4.63;92.33;97792.06;5033574;28;19921;-70
2022/01/14 04:22:51;;;;;;;;;;;;;;;-4.61;91.55;97788.56;5033233;28;19917;-68
2022/01/14 04:25:18;;;;;;;;;;;;;;;-4.68;91.45;97789.69;5047754;22;19916;-73
2022/01/14 04:27:45;;;;;;;;;;;;;;;-4.69;91.48;97794.84;5014126;28;19917;-76
2022/01/14 04:30:13;;;;;;;;;;;;;;;-4.66;91.34;97794.72;5013732;28;19917;-77
2022/01/14 04:32:40;;;;;;;;;;;;;;;-4.62;91.43;97802.16;5013793;28;19971;-73
2022/01/14 04:35:09;;;;;;;;;;;;;;;-4.67;91.47;97801.50;5013495;28;19917;-72
2022/01/14 04:37:36;;;;;;;;;;;;;;;-4.54;90.63;97804.38;5013573;28;19940;-76
2022/01/14 04:40:05;;;;;;;;;;;;;;;-4.55;90.92;97800.16;5013420;28;19918;-72
2022/01/14 04:42:32;;;;;;;;;;;;;;;-4.66;90.80;97792.19;5013516;28;19940;-74
2022/01/14 04:44:59;;;;;;;;;;;;;;;-4.68;91.08;97801.56;5014034;28;19940;-77
2022/01/14 04:47:44;;;;;;;;;;;;;;;-4.67;91.60;97793.09;5013523;28;19940;-74
2022/01/14 04:50:12;;;;;;;;;;;;;;;-4.54;90.45;97788.34;5013668;28;20312;-76
2022/01/14 04:52:40;;;;;;;;;;;;;;;-4.51;90.24;97805.97;5013694;28;19917;-73
2022/01/14 04:55:08;;;;;;;;;;;;;;;-4.53;90.31;97800.13;5013092;28;19940;-77
2022/01/14 04:57:35;;;;;;;;;;;;;;;-4.51;90.43;97808.50;5013341;28;19917;-73
2022/01/14 05:00:02;;;;;;;;;;;;;;;-4.47;89.66;97813.41;5013505;28;19917;-74
2022/01/14 05:02:29;;;;;;;;;;;;;;;-4.40;89.94;97814.75;5013329;28;20000;-74
2022/01/14 05:04:57;;;;;;;;;;;;;;;-4.32;89.60;97816.16;5013208;28;19918;-74
2022/01/14 05:07:26;;;;;;;;;;;;;;;-4.40;89.51;97826.63;5013147;28;19925;-78
2022/01/14 05:10:08;;;;;;;;;;;;;;;-4.32;89.43;97829.69;5013146;28;19917;-78
2022/01/14 05:12:36;;;;;;;;;;;;;;;-4.39;89.69;97825.78;5013264;28;19940;-73
2022/01/14 05:15:04;;;;;;;;;;;;;;;-4.35;89.37;97821.38;5012912;28;19917;-75
2022/01/14 05:17:31;;;;;;;;;;;;;;;-4.34;89.89;97815.41;5013044;28;19940;-77
2022/01/14 05:19:58;;;;;;;;;;;;;;;-4.35;89.63;97813.75;5013335;28;20029;-77
2022/01/14 05:22:27;;;;;;;;;;;;;;;-4.23;89.10;97825.94;5013167;28;19944;-77
2022/01/14 05:24:54;;;;;;;;;;;;;;;-4.33;89.05;97810.28;5013021;28;19922;-78
2022/01/14 05:27:21;;;;;;;;;;;;;;;-4.40;89.35;97819.03;5044800;22;19940;-66
2022/01/14 05:29:48;;;;;;;;;;;;;;;-4.45;90.25;97811.59;5032319;28;19917;-68
2022/01/14 05:32:15;;;;;;;;;;;;;;;-4.39;89.49;97823.22;5032572;28;19940;-68
2022/01/14 05:34:46;;;;;;;;;;;;;;;-4.52;89.95;97830.53;5032336;28;19916;-71
2022/01/14 05:37:13;;;;;;;;;;;;;;;-4.41;89.68;97832.63;5032310;28;19920;-71
2022/01/14 05:39:41;;;;;;;;;;;;;;;-4.44;89.42;97833.56;5032344;28;19940;-68
2022/01/14 05:42:09;;;;;;;;;;;;;;;-4.49;89.72;97835.47;5032145;28;19917;-70
2022/01/14 05:44:37;;;;;;;;;;;;;;;-4.40;89.54;97841.88;5032291;28;19917;-67
2022/01/14 05:47:04;;;;;;;;;;;;;;;-4.34;89.50;97836.56;5032451;28;19917;-71
2022/01/14 05:49:31;;;;;;;;;;;;;;;-4.33;89.25;97838.19;5032356;28;19935;-71
2022/01/14 05:51:58;;;;;;;;;;;;;;;-4.41;89.43;97833.44;5032116;28;20027;-70
2022/01/14 05:54:25;;;;;;;;;;;;;;;-4.38;88.94;97838.38;5034282;28;19920;-68
2022/01/14 05:56:54;;;;;;;;;;;;;;;-4.51;88.79;97842.31;5036307;28;19917;-69
2022/01/14 05:59:21;;;;;;;;;;;;;;;-4.61;89.89;97841.84;5036046;28;19968;-70
2022/01/14 06:01:48;;;;;;;;;;;;;;;-4.67;90.41;97854.78;5036131;28;19940;-69
2022/01/14 06:04:15;;;;;;;;;;;;;;;-4.65;90.16;97858.09;5035986;28;19939;-67
2022/01/14 06:06:42;;;;;;;;;;;;;;;-4.48;89.43;97864.19;5035924;28;19940;-63
2022/01/14 06:09:09;;;;;;;;;;;;;;;-4.76;90.45;97872.91;5035863;28;19940;-66
2022/01/14 06:11:36;;;;;;;;;;;;;;;-4.76;89.57;97867.81;5036035;28;19940;-69
2022/01/14 06:14:05;;;;;;;;;;;;;;;-4.67;89.53;97870.00;5036273;28;19917;-65
2022/01/14 06:16:32;;;;;;;;;;;;;;;-4.91;90.19;97870.94;5035743;28;19940;-70
2022/01/14 06:18:59;;;;;;;;;;;;;;;-4.92;90.29;97882.00;5035680;28;20351;-69
2022/01/14 06:21:26;;;;;;;;;;;;;;;-4.96;90.23;97882.97;5035412;28;19940;-65
2022/01/14 06:23:53;;;;;;;;;;;;;;;-5.04;91.18;97879.03;5035419;28;19966;-66
2022/01/14 06:26:20;;;;;;;;;;;;;;;-5.06;90.20;97887.56;5049255;22;19917;-79
2022/01/14 06:28:47;;;;;;;;;;;;;;;-5.19;90.93;97894.00;5036094;28;19921;-79
2022/01/14 06:31:15;;;;;;;;;;;;;;;-5.05;90.08;97887.53;5035527;28;19917;-74
2022/01/14 06:33:42;;;;;;;;;;;;;;;-5.28;90.54;97892.63;5035263;28;19921;-78
2022/01/14 06:36:09;;;;;;;;;;;;;;;-5.28;90.30;97893.44;5035711;28;19917;-75
2022/01/14 06:38:37;;;;;;;;;;;;;;;-5.29;91.23;97896.88;5035737;28;19916;-78
2022/01/14 06:41:04;;;;;;;;;;;;;;;-5.51;92.03;97911.19;5035691;28;19939;-75
2022/01/14 06:43:31;;;;;;;;;;;;;;;-5.58;91.71;97912.28;5035647;28;19963;-77
2022/01/14 06:45:57;;;;;;;;;;;;;;;-5.54;92.54;97914.66;5035352;28;19943;-76
2022/01/14 06:48:26;;;;;;;;;;;;;;;-5.60;92.83;97922.50;5042970;28;19943;-74
2022/01/14 06:50:54;;;;;;;;;;;;;;;-5.56;92.60;97928.25;5055027;28;19916;-78
2022/01/14 06:53:22;;;;;;;;;;;;;;;-5.50;91.99;97922.97;5046515;28;19986;-75
2022/01/14 06:55:48;;;;;;;;;;;;;;;-5.59;92.34;97924.13;5016717;28;19940;-75
2022/01/14 06:58:16;;;;;;;;;;;;;;;-5.53;92.34;97933.22;5024773;28;19939;-75
2022/01/14 07:00:43;;;;;;;;;;;;;;;-5.65;92.96;97944.63;5034720;28;19920;-76
2022/01/14 07:03:10;;;;;;;;;;;;;;;-5.59;92.40;97934.25;5035047;28;19917;-75
2022/01/14 07:05:38;;;;;;;;;;;;;;;-5.60;92.61;97949.50;5034799;28;20266;-75
2022/01/14 07:08:06;;;;;;;;;;;;;;;-5.52;92.29;97950.91;5034711;28;19939;-74
2022/01/14 07:10:36;;;;;;;;;;;;;;;-5.47;92.17;97945.69;5034633;28;19921;-74
2022/01/14 07:13:04;;;;;;;;;;;;;;;-5.54;91.77;97941.72;5034734;28;19921;-77
2022/01/14 07:15:31;;;;;;;;;;;;;;;-5.57;92.48;97954.50;5034792;28;19917;-76
2022/01/14 07:17:58;;;;;;;;;;;;;;;-5.54;91.85;97957.72;5034158;28;19917;-74
2022/01/14 07:20:25;;;;;;;;;;;;;;;-5.50;91.41;97964.38;5033432;28;19920;-76
2022/01/14 07:22:53;;;;;;;;;;;;;;;-5.47;91.18;97974.38;5037105;28;19916;-80
2022/01/14 07:25:20;;;;;;;;;;;;;;;-5.47;91.21;97981.97;5053888;28;20035;-74
2022/01/14 07:27:48;;;;;;;;;;;;;;;-5.34;90.39;97991.72;5054416;28;19943;-73
2022/01/14 07:30:15;;;;;;;;;;;;;;;-5.42;91.10;97986.91;5052188;28;19916;-76
2022/01/14 07:32:42;;;;;;;;;;;;;;;-5.31;90.60;97987.34;5034311;28;19917;-77
2022/01/14 07:35:10;;;;;;;;;;;;;;;-5.39;90.81;97998.63;5034010;28;20035;-76
2022/01/14 07:37:37;;;;;;;;;;;;;;;-5.25;90.53;98007.41;5033776;28;19916;-79
2022/01/14 07:40:06;;;;;;;;;;;;;;;-5.18;89.87;98005.47;5042767;28;19924;-74
2022/01/14 07:42:34;;;;;;;;;;;;;;;-5.18;90.00;98007.19;5033645;28;19939;-76
2022/01/14 07:45:01;;;;;;;;;;;;;;;-5.23;89.53;98006.53;5033244;28;19917;-75
2022/01/14 07:47:28;;;;;;;;;;;;;;;-5.26;89.88;98020.13;5111049;22;19918;-75
2022/01/14 07:49:55;;;;;;;;;;;;;;;-5.07;89.66;98015.25;5053009;28;20015;-79
2022/01/14 07:52:22;;;;;;;;;;;;;;;-5.05;89.58;98023.63;5052818;28;19916;-79
2022/01/14 07:54:49;;;;;;;;;;;;;;;-4.93;88.33;98023.19;5053859;28;20347;-81
2022/01/14 07:57:18;;;;;;;;;;;;;;;-4.92;88.33;98021.47;5034983;28;19956;-81
2022/01/14 07:59:45;;;;;;;;;;;;;;;-4.95;88.74;98030.03;5033104;28;19917;-74
2022/01/14 08:02:12;;;;;;;;;;;;;;;-4.96;88.37;98040.22;5033482;28;19917;-75
2022/01/14 08:04:41;;;;;;;;;;;;;;;-5.05;88.84;98039.66;5033779;28;19917;-76
2022/01/14 08:07:11;;;;;;;;;;;;;;;-5.07;88.57;98033.00;5104013;22;20009;-82
2022/01/14 08:09:39;;;;;;;;;;;;;;;-5.07;88.30;98035.53;5000248;28;19975;-77
2022/01/14 08:12:07;;;;;;;;;;;;;;;-5.10;88.41;98041.53;5013314;28;19925;-82
2022/01/14 08:14:35;;;;;;;;;;;;;;;-5.06;88.78;98035.47;5014162;28;19921;-75
2022/01/14 08:19:52;;;;;;;;;;;;;;;-4.99;88.06;98037.78;5060492;28;19916;-80
2022/01/14 08:22:19;;;;;;;;;;;;;;;-5.06;88.67;98044.78;5073463;28;19993;-80
2022/01/14 08:24:46;;;;;;;;;;;;;;;-4.98;87.84;98044.50;5073383;28;19939;-74
2022/01/14 08:27:13;;;;;;;;;;;;;;;-4.91;87.96;98045.94;5042490;22;19940;-73
2022/01/14 08:29:41;;;;;;;;;;;;;;;-4.96;88.04;98038.50;5013489;28;19940;-67
2022/01/14 08:32:09;;;;;;;;;;;;;;;-5.06;87.81;98045.63;5013352;28;19917;-72
2022/01/14 08:34:36;;;;;;;;;;;;;;;-5.06;88.41;98042.25;5013400;28;19943;-71
2022/01/14 08:37:03;;;;;;;;;;;;;;;-4.93;87.58;98053.63;5013260;28;19940;-73
2022/01/14 08:39:30;;;;;;;;;;;;;;;-4.87;87.42;98053.41;5024581;28;19921;-71
2022/01/14 08:41:58;;;;;;;;;;;;;;;-4.77;86.71;98063.22;5033119;28;19939;-72
2022/01/14 08:44:25;;;;;;;;;;;;;;;-4.88;87.54;98061.06;5015071;28;20351;-72
2022/01/14 08:46:55;;;;;;;;;;;;;;;-4.88;87.06;98066.97;5012841;28;19917;-72
2022/01/14 08:49:22;;;;;;;;;;;;;;;-4.82;86.28;98071.81;5013188;28;19941;-72
2022/01/14 08:51:49;;;;;;;;;;;;;;;-4.96;86.61;98079.06;5012273;28;19941;-68
2022/01/14 08:54:16;;;;;;;;;;;;;;;-4.98;87.29;98080.00;5013402;28;19917;-69
2022/01/14 08:56:44;;;;;;;;;;;;;;;-4.84;86.49;98080.38;5013301;28;19921;-71
2022/01/14 08:59:10;;;;;;;;;;;;;;;-4.89;86.81;98094.91;5012838;28;19940;-72
2022/01/14 09:01:40;;;;;;;;;;;;;;;-4.96;86.56;98093.47;5009724;28;19944;-72
2022/01/14 09:04:08;;;;;;;;;;;;;;;-5.03;87.18;98103.00;5012440;28;19921;-70
2022/01/14 09:06:35;;;;;;;;;;;;;;;-4.96;87.29;98109.50;5012801;28;19917;-72
2022/01/14 09:09:03;;;;;;;;;;;;;;;-4.96;85.93;98118.84;5012992;28;19917;-71
2022/01/14 09:11:30;;;;;;;;;;;;;;;-4.97;86.58;98119.72;5012862;28;19940;-69
2022/01/14 09:13:56;;;;;;;;;;;;;;;-5.08;87.30;98115.84;5012661;28;19940;-72
2022/01/14 09:16:23;;;;;;;;;;;;;;;-5.16;87.26;98120.34;5012552;28;19940;-74
2022/01/14 09:18:50;;;;;;;;;;;;;;;-5.20;87.75;98130.63;5012437;28;19917;-71
2022/01/14 09:21:20;;;;;;;;;;;;;;;-5.10;86.33;98135.34;5011485;28;19940;-72
2022/01/14 09:23:52;;;;;;;;;;;;;;;-5.07;86.69;98137.78;5013199;28;19940;-70
2022/01/14 09:26:19;;;;;;;;;;;;;;;-5.09;86.79;98147.13;5020597;28;20007;-70
2022/01/14 09:28:47;;;;;;;;;;;;;;;-5.07;87.11;98153.00;5031753;28;19917;-73
2022/01/14 09:31:14;;;;;;;;;;;;;;;-5.05;86.71;98161.38;5032130;28;19917;-72
2022/01/14 09:33:41;;;;;;;;;;;;;;;-5.06;86.54;98169.03;5031986;28;20047;-71
2022/01/14 09:36:08;;;;;;;;;;;;;;;-4.95;85.99;98168.69;5031421;28;19939;-71
2022/01/14 09:38:37;;;;;;;;;;;;;;;-4.98;85.79;98176.38;5031558;28;19916;-69
2022/01/14 09:41:05;;;;;;;;;;;;;;;-5.01;86.60;98171.41;5031978;28;19956;-73
2022/01/14 09:43:36;;;;;;;;;;;;;;;-4.95;86.40;98178.84;5032246;28;19917;-70
2022/01/14 09:46:03;;;;;;;;;;;;;;;-4.97;86.08;98176.34;5032079;28;19939;-72
2022/01/14 09:48:30;;;;;;;;;;;;;;;-4.99;85.58;98169.66;5032203;28;19939;-72
2022/01/14 09:50:57;;;;;;;;;;;;;;;-4.92;86.12;98179.56;5032265;28;19967;-73
2022/01/14 09:53:26;;;;;;;;;;;;;;;-4.89;86.18;98191.31;5032001;28;19940;-71
2022/01/14 09:55:54;;;;;;;;;;;;;;;-4.90;85.73;98190.47;5032013;28;19917;-72
2022/01/14 09:58:23;;;;;;;;;;;;;;;-4.90;85.86;98199.81;5031914;28;19971;-70
2022/01/14 10:00:51;;;;;;;;;;;;;;;-4.75;84.94;98199.28;5032016;28;19916;-70
2022/01/14 10:03:19;;;;;;;;;;;;;;;-4.68;84.84;98204.97;5032519;28;19979;-71
2022/01/14 10:05:51;;;;;;;;;;;;;;;-4.62;84.16;98207.31;5032097;28;19940;-73
2022/01/14 10:08:21;;;;;;;;;;;;;;;-4.60;84.47;98210.59;5032156;28;19917;-72
2022/01/14 10:10:51;;;;;;;;;;;;;;;-4.55;84.06;98216.34;5026116;28;19960;-71
2022/01/14 10:13:21;;;;;;;;;;;;;;;-4.44;84.17;98224.44;5016386;28;20016;-73
2022/01/14 10:15:49;;;;;;;;;;;;;;;-4.46;84.04;98225.38;5030760;28;19917;-73
2022/01/14 10:18:16;;;;;;;;;;;;;;;-4.35;83.38;98218.22;5028616;28;19940;-72
2022/01/14 10:20:44;;;;;;;;;;;;;;;-4.32;83.66;98223.16;5012300;28;19921;-73
2022/01/14 10:23:12;;;;;;;;;;;;;;;-4.22;83.07;98231.31;5013734;28;19940;-72
2022/01/14 10:25:39;;;;;;;;;;;;;;;-4.13;82.95;98232.69;5032314;28;19912;-68
2022/01/14 10:28:19;;;;;;;;;;;;;;;-4.10;82.19;98245.28;5017748;28;19925;-70
2022/01/14 10:30:48;;;;;;;;;;;;;;;-3.85;81.74;98246.06;5012188;28;19921;-71
2022/01/14 10:33:18;;;;;;;;;;;;;;;-3.88;80.95;98245.31;5011882;28;20439;-72
2022/01/14 10:35:46;;;;;;;;;;;;;;;-3.88;80.66;98256.31;5011909;28;19929;-72
2022/01/14 10:38:13;;;;;;;;;;;;;;;-3.82;81.07;98252.75;5011899;28;19969;-73
2022/01/14 10:40:43;;;;;;;;;;;;;;;-3.82;80.34;98262.91;5014144;28;19928;-69
2022/01/14 10:43:10;;;;;;;;;;;;;;;-3.73;79.79;98262.56;5015574;28;20327;-71
2022/01/14 10:45:37;;;;;;;;;;;;;;;-3.82;80.89;98268.00;5033287;28;19921;-69
2022/01/14 10:48:07;;;;;;;;;;;;;;;-3.71;80.29;98263.31;5035144;28;19921;-69
2022/01/14 10:50:35;;;;;;;;;;;;;;;-3.76;80.18;98270.28;5034892;28;19925;-70
2022/01/14 10:53:03;;;;;;;;;;;;;;;-3.86;80.74;98284.22;5035355;28;19944;-72
2022/01/14 10:55:31;;;;;;;;;;;;;;;-3.68;80.21;98287.81;5035275;28;19928;-70
2022/01/14 10:57:58;;;;;;;;;;;;;;;-3.68;79.81;98288.63;5035060;28;19928;-71
2022/01/14 11:00:25;;;;;;;;;;;;;;;-3.92;81.07;98295.44;5034986;28;20417;-71
2022/01/14 11:02:53;;;;;;;;;;;;;;;-3.92;80.82;98295.44;5035203;28;20375;-72
2022/01/14 11:05:23;;;;;;;;;;;;;;;-3.95;80.83;98306.53;5032371;28;19921;-72
2022/01/14 11:07:50;;;;;;;;;;;;;;;-3.88;80.64;98309.66;5034033;28;19925;-72
2022/01/14 11:10:18;;;;;;;;;;;;;;;-3.82;80.77;98312.00;5033867;28;19928;-71
2022/01/14 11:12:45;;;;;;;;;;;;;;;-3.61;80.20;98323.09;5033994;28;20355;-71
2022/01/14 11:15:12;;;;;;;;;;;;;;;-3.62;79.67;98323.16;5033475;28;19921;-72
2022/01/14 11:17:39;;;;;;;;;;;;;;;-3.65;80.00;98329.16;5032688;28;20385;-73
2022/01/14 11:20:08;;;;;;;;;;;;;;;-3.63;79.63;98331.66;5012809;28;19928;-70
2022/01/14 11:25:29;;;;;;;;;;;;;;;-3.88;80.86;98336.78;5014023;28;19929;-73
2022/01/14 11:27:58;;;;;;;;;;;;;;;-4.20;81.98;98329.41;5013781;28;19921;-69
2022/01/14 11:30:31;;;;;;;;;;;;;;;-4.24;82.43;98335.47;5013763;28;19922;-72
2022/01/14 11:33:01;;;;;;;;;;;;;;;-4.21;81.95;98345.53;5013492;28;19921;-73
2022/01/14 11:35:28;;;;;;;;;;;;;;;-4.32;82.26;98360.25;5013290;28;19929;-73
2022/01/14 11:37:56;;;;;;;;;;;;;;;-4.18;81.77;98359.81;5013615;28;19953;-73
2022/01/14 11:40:23;;;;;;;;;;;;;;;-4.18;81.82;98362.38;5013639;28;19921;-73
2022/01/14 11:42:50;;;;;;;;;;;;;;;-4.10;81.89;98367.19;5013207;28;19921;-73
2022/01/14 11:45:17;;;;;;;;;;;;;;;-3.94;80.60;98368.31;5047749;28;19924;-73
2022/01/14 11:47:59;;;;;;;;;;;;;;;-3.99;80.83;98368.47;5052611;28;19928;-73
2022/01/14 11:50:46;;;;;;;;;;;;;;;-4.08;81.22;98363.72;5053052;28;19920;-73
2022/01/14 11:53:31;;;;;;;;;;;;;;;-4.14;81.91;98370.69;5052435;28;19960;-73
2022/01/14 11:55:59;;;;;;;;;;;;;;;-4.05;81.22;98373.78;5052808;28;19921;-65
2022/01/14 11:58:26;;;;;;;;;;;;;;;-4.19;81.50;98384.41;5052792;28;19924;-73
2022/01/14 12:00:53;;;;;;;;;;;;;;;-4.15;81.40;98382.56;5052903;28;19924;-72
2022/01/14 12:03:29;;;;;;;;;;;;;;;-4.06;81.40;98386.50;5052682;28;19932;-73
2022/01/14 12:06:00;;;;;;;;;;;;;;;-3.94;81.41;98386.09;5052626;28;19920;-73
2022/01/14 12:08:28;;;;;;;;;;;;;;;-3.91;80.61;98380.09;5052902;28;19928;-73
2022/01/14 12:10:56;;;;;;;;;;;;;;;-3.90;80.63;98377.50;5052631;28;19921;-73
2022/01/14 12:13:26;;;;;;;;;;;;;;;-4.01;80.94;98394.81;5052733;28;19927;-73
2022/01/14 12:15:58;;;;;;;;;;;;;;;-4.00;80.71;98394.75;5052426;28;19927;-74
2022/01/14 12:18:43;;;;;;;;;;;;;;;-3.99;80.95;98398.94;5045359;28;19963;-73
2022/01/14 12:21:09;;;;;;;;;;;;;;;-4.05;81.53;98403.44;5031881;28;19929;-71
2022/01/14 12:23:36;;;;;;;;;;;;;;;-4.13;81.53;98408.75;5032333;28;19925;-72
2022/01/14 12:26:13;;;;;;;;;;;;;;;-4.11;81.88;98422.25;5032583;28;19921;-73
2022/01/14 12:28:41;;;;;;;;;;;;;;;-4.14;82.00;98413.88;5032398;28;19928;-73
2022/01/14 12:31:08;;;;;;;;;;;;;;;-4.11;81.83;98426.47;5032226;28;19925;-73
2022/01/14 12:33:41;;;;;;;;;;;;;;;-4.02;81.96;98429.53;5032234;28;19928;-72
2022/01/14 12:36:12;;;;;;;;;;;;;;;-3.97;82.38;98431.94;5032307;28;19921;-74
2022/01/14 12:38:39;;;;;;;;;;;;;;;-3.89;81.97;98429.97;5031719;28;19920;-74
2022/01/14 12:41:13;;;;;;;;;;;;;;;-3.84;81.00;98438.25;5031690;28;19929;-73
2022/01/14 12:43:48;;;;;;;;;;;;;;;-3.86;81.10;98440.03;5032214;28;19996;-69
2022/01/14 12:46:34;;;;;;;;;;;;;;;-3.93;81.63;98441.13;5031934;28;19936;-72
2022/01/14 12:49:02;;;;;;;;;;;;;;;-4.00;82.11;98447.28;5032284;28;19921;-69
2022/01/14 12:51:29;;;;;;;;;;;;;;;-3.94;81.99;98447.91;5032209;28;19921;-71
2022/01/14 12:53:57;;;;;;;;;;;;;;;-3.89;81.92;98455.38;5031822;28;19921;-73
2022/01/14 12:56:24;;;;;;;;;;;;;;;-3.94;82.16;98463.13;5032002;28;19921;-73
2022/01/14 12:58:53;;;;;;;;;;;;;;;-3.88;82.03;98462.09;5032008;28;20011;-71
2022/01/14 13:01:19;;;;;;;;;;;;;;;-3.85;81.74;98462.03;5031509;28;19921;-70
2022/01/14 13:03:46;;;;;;;;;;;;;;;-4.01;82.25;98466.78;5031627;28;20379;-71
2022/01/14 13:06:13;;;;;;;;;;;;;;;-3.90;82.14;98479.13;5031107;28;19921;-70
2022/01/14 13:08:39;;;;;;;;;;;;;;;-3.95;82.37;98474.19;5031680;28;19928;-73
2022/01/14 13:11:06;;;;;;;;;;;;;;;-3.89;82.36;98477.41;5031832;28;19925;-72
2022/01/14 13:13:33;;;;;;;;;;;;;;;-3.99;82.34;98475.16;5031468;28;20023;-67
2022/01/14 13:16:06;;;;;;;;;;;;;;;-3.90;82.87;98484.22;5031895;28;19943;-73
2022/01/14 13:18:43;;;;;;;;;;;;;;;-3.92;82.58;98485.13;5023548;28;20012;-68
2022/01/14 13:21:10;;;;;;;;;;;;;;;-3.85;82.46;98496.75;5011637;28;20435;-73
2022/01/14 13:23:36;;;;;;;;;;;;;;;-3.82;82.84;98502.56;5011605;28;19926;-71